sensor_id;sensor_type;location;lat;lon;timestamp;P1;durP1;ratioP1;P2;durP2;ratioP2
13967;SDS011;39536;52.198;9.920;2023-08-31T00:00:59;10.33;;;9.30;;
13967;SDS011;39536;52.198;9.920;2023-08-31T00:03:28;10.00;;;9.20;;
13967;SDS011;39536;52.198;9.920;2023-08-31T00:05:55;10.93;;;9.97;;
13967;SDS011;39536;52.198;9.920;2023-08-31T00:08:21;12.43;;;11.50;;
13967;SDS011;39536;52.198;9.920;2023-08-31T00:10:54;10.53;;;9.73;;
13967;SDS011;39536;52.198;9.920;2023-08-31T00:13:21;11.47;;;10.53;;
13967;SDS011;39536;52.198;9.920;2023-08-31T00:15:49;11.50;;;10.50;;
13967;SDS011;39536;52.198;9.920;2023-08-31T00:18:15;12.10;;;9.70;;
13967;SDS011;39536;52.198;9.920;2023-08-31T00:20:43;10.43;;;9.30;;
13967;SDS011;39536;52.198;9.920;2023-08-31T00:23:09;10.20;;;9.40;;
13967;SDS011;39536;52.198;9.920;2023-08-31T00:25:36;10.03;;;9.23;;
13967;SDS011;39536;52.198;9.920;2023-08-31T00:28:02;10.90;;;9.13;;
13967;SDS011;39536;52.198;9.920;2023-08-31T00:30:30;10.43;;;9.63;;
13967;SDS011;39536;52.198;9.920;2023-08-31T00:32:58;10.40;;;9.60;;
13967;SDS011;39536;52.198;9.920;2023-08-31T00:35:25;11.93;;;10.90;;
13967;SDS011;39536;52.198;9.920;2023-08-31T00:37:52;11.23;;;10.33;;
13967;SDS011;39536;52.198;9.920;2023-08-31T00:40:23;13.33;;;11.83;;
13967;SDS011;39536;52.198;9.920;2023-08-31T00:42:50;12.50;;;11.50;;
13967;SDS011;39536;52.198;9.920;2023-08-31T00:45:17;13.23;;;12.13;;
13967;SDS011;39536;52.198;9.920;2023-08-31T00:47:44;12.53;;;11.67;;
13967;SDS011;39536;52.198;9.920;2023-08-31T00:50:12;13.17;;;12.17;;
13967;SDS011;39536;52.198;9.920;2023-08-31T00:52:38;13.20;;;11.90;;
13967;SDS011;39536;52.198;9.920;2023-08-31T00:55:05;13.73;;;12.53;;
13967;SDS011;39536;52.198;9.920;2023-08-31T00:57:33;13.07;;;11.97;;
13967;SDS011;39536;52.198;9.920;2023-08-31T00:59:58;13.10;;;11.90;;
13967;SDS011;39536;52.198;9.920;2023-08-31T01:02:30;12.47;;;11.17;;
13967;SDS011;39536;52.198;9.920;2023-08-31T01:05:04;14.53;;;12.30;;
13967;SDS011;39536;52.198;9.920;2023-08-31T01:07:40;12.00;;;11.17;;
13967;SDS011;39536;52.198;9.920;2023-08-31T01:10:14;13.27;;;12.27;;
13967;SDS011;39536;52.198;9.920;2023-08-31T01:12:50;12.80;;;11.67;;
13967;SDS011;39536;52.198;9.920;2023-08-31T01:15:20;12.90;;;11.90;;
13967;SDS011;39536;52.198;9.920;2023-08-31T01:17:48;11.57;;;10.47;;
13967;SDS011;39536;52.198;9.920;2023-08-31T01:20:19;12.40;;;11.37;;
13967;SDS011;39536;52.198;9.920;2023-08-31T01:22:57;11.33;;;10.43;;
13967;SDS011;39536;52.198;9.920;2023-08-31T01:25:30;12.10;;;11.07;;
13967;SDS011;39536;52.198;9.920;2023-08-31T01:27:58;11.47;;;10.47;;
13967;SDS011;39536;52.198;9.920;2023-08-31T01:30:29;12.43;;;11.17;;
13967;SDS011;39536;52.198;9.920;2023-08-31T01:32:55;12.40;;;11.10;;
13967;SDS011;39536;52.198;9.920;2023-08-31T01:35:22;12.37;;;10.63;;
13967;SDS011;39536;52.198;9.920;2023-08-31T01:37:50;11.70;;;10.80;;
13967;SDS011;39536;52.198;9.920;2023-08-31T01:40:21;11.47;;;10.63;;
13967;SDS011;39536;52.198;9.920;2023-08-31T01:42:52;11.03;;;10.03;;
13967;SDS011;39536;52.198;9.920;2023-08-31T01:45:20;11.87;;;10.77;;
13967;SDS011;39536;52.198;9.920;2023-08-31T01:47:48;11.97;;;10.93;;
13967;SDS011;39536;52.198;9.920;2023-08-31T01:50:15;11.80;;;10.77;;
13967;SDS011;39536;52.198;9.920;2023-08-31T01:52:42;12.87;;;11.87;;
13967;SDS011;39536;52.198;9.920;2023-08-31T01:55:08;11.40;;;10.30;;
13967;SDS011;39536;52.198;9.920;2023-08-31T01:57:35;11.67;;;10.57;;
13967;SDS011;39536;52.198;9.920;2023-08-31T02:00:03;12.17;;;10.87;;
13967;SDS011;39536;52.198;9.920;2023-08-31T02:02:31;12.03;;;11.03;;
13967;SDS011;39536;52.198;9.920;2023-08-31T02:04:57;11.80;;;10.77;;
13967;SDS011;39536;52.198;9.920;2023-08-31T02:07:26;13.10;;;12.00;;
13967;SDS011;39536;52.198;9.920;2023-08-31T02:09:53;11.33;;;10.40;;
13967;SDS011;39536;52.198;9.920;2023-08-31T02:12:19;12.63;;;11.53;;
13967;SDS011;39536;52.198;9.920;2023-08-31T02:14:45;12.70;;;11.53;;
13967;SDS011;39536;52.198;9.920;2023-08-31T02:17:13;11.73;;;10.63;;
13967;SDS011;39536;52.198;9.920;2023-08-31T02:19:40;12.37;;;11.23;;
13967;SDS011;39536;52.198;9.920;2023-08-31T02:22:06;12.10;;;11.03;;
13967;SDS011;39536;52.198;9.920;2023-08-31T02:24:33;18.57;;;13.13;;
13967;SDS011;39536;52.198;9.920;2023-08-31T02:26:59;12.97;;;11.77;;
13967;SDS011;39536;52.198;9.920;2023-08-31T02:29:25;13.90;;;12.57;;
13967;SDS011;39536;52.198;9.920;2023-08-31T02:31:53;12.80;;;11.70;;
13967;SDS011;39536;52.198;9.920;2023-08-31T02:34:21;12.03;;;11.03;;
13967;SDS011;39536;52.198;9.920;2023-08-31T02:36:47;13.23;;;12.00;;
13967;SDS011;39536;52.198;9.920;2023-08-31T02:39:13;14.77;;;12.13;;
13967;SDS011;39536;52.198;9.920;2023-08-31T02:41:41;12.97;;;11.80;;
13967;SDS011;39536;52.198;9.920;2023-08-31T02:44:07;12.77;;;11.50;;
13967;SDS011;39536;52.198;9.920;2023-08-31T02:46:34;14.27;;;12.43;;
13967;SDS011;39536;52.198;9.920;2023-08-31T02:49:00;13.00;;;11.90;;
13967;SDS011;39536;52.198;9.920;2023-08-31T02:51:28;12.30;;;11.10;;
13967;SDS011;39536;52.198;9.920;2023-08-31T02:53:55;12.43;;;11.43;;
13967;SDS011;39536;52.198;9.920;2023-08-31T02:56:21;12.20;;;11.20;;
13967;SDS011;39536;52.198;9.920;2023-08-31T02:58:47;12.63;;;11.47;;
13967;SDS011;39536;52.198;9.920;2023-08-31T03:01:14;12.63;;;11.53;;
13967;SDS011;39536;52.198;9.920;2023-08-31T03:03:41;11.93;;;10.70;;
13967;SDS011;39536;52.198;9.920;2023-08-31T03:06:08;12.43;;;11.27;;
13967;SDS011;39536;52.198;9.920;2023-08-31T03:08:37;11.67;;;10.73;;
13967;SDS011;39536;52.198;9.920;2023-08-31T03:11:04;11.63;;;10.47;;
13967;SDS011;39536;52.198;9.920;2023-08-31T03:13:31;11.43;;;10.37;;
13967;SDS011;39536;52.198;9.920;2023-08-31T03:15:59;11.30;;;9.97;;
13967;SDS011;39536;52.198;9.920;2023-08-31T03:18:25;11.27;;;10.10;;
13967;SDS011;39536;52.198;9.920;2023-08-31T03:20:52;11.37;;;10.37;;
13967;SDS011;39536;52.198;9.920;2023-08-31T03:23:20;10.87;;;9.77;;
13967;SDS011;39536;52.198;9.920;2023-08-31T03:25:48;10.90;;;9.60;;
13967;SDS011;39536;52.198;9.920;2023-08-31T03:28:14;9.73;;;8.93;;
13967;SDS011;39536;52.198;9.920;2023-08-31T03:30:40;10.83;;;9.83;;
13967;SDS011;39536;52.198;9.920;2023-08-31T03:33:10;10.80;;;9.80;;
13967;SDS011;39536;52.198;9.920;2023-08-31T03:35:36;10.33;;;9.53;;
13967;SDS011;39536;52.198;9.920;2023-08-31T03:38:03;10.63;;;9.63;;
13967;SDS011;39536;52.198;9.920;2023-08-31T03:40:30;10.43;;;9.33;;
13967;SDS011;39536;52.198;9.920;2023-08-31T03:42:58;11.93;;;9.37;;
13967;SDS011;39536;52.198;9.920;2023-08-31T03:45:25;15.27;;;9.60;;
13967;SDS011;39536;52.198;9.920;2023-08-31T03:47:51;10.63;;;9.83;;
13967;SDS011;39536;52.198;9.920;2023-08-31T03:50:18;9.73;;;8.83;;
13967;SDS011;39536;52.198;9.920;2023-08-31T03:52:45;10.60;;;9.60;;
13967;SDS011;39536;52.198;9.920;2023-08-31T03:55:11;10.93;;;9.63;;
13967;SDS011;39536;52.198;9.920;2023-08-31T03:57:38;10.20;;;9.27;;
13967;SDS011;39536;52.198;9.920;2023-08-31T04:00:06;10.93;;;9.90;;
13967;SDS011;39536;52.198;9.920;2023-08-31T04:02:35;10.03;;;9.13;;
13967;SDS011;39536;52.198;9.920;2023-08-31T04:05:03;10.30;;;9.20;;
13967;SDS011;39536;52.198;9.920;2023-08-31T04:07:30;13.87;;;9.90;;
13967;SDS011;39536;52.198;9.920;2023-08-31T04:09:57;11.50;;;9.63;;
13967;SDS011;39536;52.198;9.920;2023-08-31T04:12:23;10.80;;;9.80;;
13967;SDS011;39536;52.198;9.920;2023-08-31T04:14:50;10.47;;;9.67;;
13967;SDS011;39536;52.198;9.920;2023-08-31T04:17:17;10.63;;;9.77;;
13967;SDS011;39536;52.198;9.920;2023-08-31T04:19:44;11.73;;;10.57;;
13967;SDS011;39536;52.198;9.920;2023-08-31T04:22:11;12.13;;;10.67;;
13967;SDS011;39536;52.198;9.920;2023-08-31T04:24:37;11.77;;;10.17;;
13967;SDS011;39536;52.198;9.920;2023-08-31T04:27:04;12.27;;;11.17;;
13967;SDS011;39536;52.198;9.920;2023-08-31T04:29:30;12.77;;;11.50;;
13967;SDS011;39536;52.198;9.920;2023-08-31T04:31:57;12.53;;;11.33;;
13967;SDS011;39536;52.198;9.920;2023-08-31T04:34:25;12.17;;;11.07;;
13967;SDS011;39536;52.198;9.920;2023-08-31T04:36:52;13.07;;;10.93;;
13967;SDS011;39536;52.198;9.920;2023-08-31T04:39:18;12.03;;;10.97;;
13967;SDS011;39536;52.198;9.920;2023-08-31T04:41:45;13.83;;;12.33;;
13967;SDS011;39536;52.198;9.920;2023-08-31T04:44:11;16.13;;;11.17;;
13967;SDS011;39536;52.198;9.920;2023-08-31T04:46:38;11.97;;;10.93;;
13967;SDS011;39536;52.198;9.920;2023-08-31T04:49:05;11.40;;;10.30;;
13967;SDS011;39536;52.198;9.920;2023-08-31T04:51:33;11.80;;;10.77;;
13967;SDS011;39536;52.198;9.920;2023-08-31T04:54:02;12.93;;;11.93;;
13967;SDS011;39536;52.198;9.920;2023-08-31T04:56:30;14.53;;;11.40;;
13967;SDS011;39536;52.198;9.920;2023-08-31T04:58:57;14.57;;;12.90;;
13967;SDS011;39536;52.198;9.920;2023-08-31T05:01:24;14.50;;;13.17;;
13967;SDS011;39536;52.198;9.920;2023-08-31T05:03:50;14.87;;;13.67;;
13967;SDS011;39536;52.198;9.920;2023-08-31T05:06:17;16.60;;;15.03;;
13967;SDS011;39536;52.198;9.920;2023-08-31T05:08:46;18.33;;;15.03;;
13967;SDS011;39536;52.198;9.920;2023-08-31T05:11:12;15.37;;;13.97;;
13967;SDS011;39536;52.198;9.920;2023-08-31T05:13:39;17.50;;;15.97;;
13967;SDS011;39536;52.198;9.920;2023-08-31T05:16:07;18.57;;;15.47;;
13967;SDS011;39536;52.198;9.920;2023-08-31T05:18:33;17.27;;;15.77;;
13967;SDS011;39536;52.198;9.920;2023-08-31T05:21:00;17.43;;;15.73;;
13967;SDS011;39536;52.198;9.920;2023-08-31T05:23:27;19.07;;;16.77;;
13967;SDS011;39536;52.198;9.920;2023-08-31T05:25:55;16.67;;;15.17;;
13967;SDS011;39536;52.198;9.920;2023-08-31T05:28:22;17.10;;;15.40;;
13967;SDS011;39536;52.198;9.920;2023-08-31T05:30:49;17.67;;;15.87;;
13967;SDS011;39536;52.198;9.920;2023-08-31T05:33:16;16.57;;;15.03;;
13967;SDS011;39536;52.198;9.920;2023-08-31T05:35:43;15.87;;;14.47;;
13967;SDS011;39536;52.198;9.920;2023-08-31T05:38:09;17.87;;;15.80;;
13967;SDS011;39536;52.198;9.920;2023-08-31T05:40:36;16.67;;;15.17;;
13967;SDS011;39536;52.198;9.920;2023-08-31T05:43:04;16.37;;;14.83;;
13967;SDS011;39536;52.198;9.920;2023-08-31T05:45:31;16.33;;;14.83;;
13967;SDS011;39536;52.198;9.920;2023-08-31T05:47:58;16.13;;;14.73;;
13967;SDS011;39536;52.198;9.920;2023-08-31T05:50:25;14.57;;;13.27;;
13967;SDS011;39536;52.198;9.920;2023-08-31T05:52:52;15.43;;;13.70;;
13967;SDS011;39536;52.198;9.920;2023-08-31T05:55:18;16.37;;;14.90;;
13967;SDS011;39536;52.198;9.920;2023-08-31T05:57:45;16.57;;;15.03;;
13967;SDS011;39536;52.198;9.920;2023-08-31T06:00:13;14.50;;;13.20;;
13967;SDS011;39536;52.198;9.920;2023-08-31T06:02:40;14.57;;;13.27;;
13967;SDS011;39536;52.198;9.920;2023-08-31T06:05:07;15.40;;;14.10;;
13967;SDS011;39536;52.198;9.920;2023-08-31T06:07:34;14.37;;;13.27;;
13967;SDS011;39536;52.198;9.920;2023-08-31T06:10:00;14.13;;;13.03;;
13967;SDS011;39536;52.198;9.920;2023-08-31T06:12:28;13.20;;;12.20;;
13967;SDS011;39536;52.198;9.920;2023-08-31T06:14:55;14.50;;;13.23;;
13967;SDS011;39536;52.198;9.920;2023-08-31T06:17:22;14.10;;;13.10;;
13967;SDS011;39536;52.198;9.920;2023-08-31T06:19:49;12.20;;;11.10;;
13967;SDS011;39536;52.198;9.920;2023-08-31T06:22:15;15.03;;;13.93;;
13967;SDS011;39536;52.198;9.920;2023-08-31T06:24:43;16.33;;;15.00;;
13967;SDS011;39536;52.198;9.920;2023-08-31T06:27:10;15.97;;;14.67;;
13967;SDS011;39536;52.198;9.920;2023-08-31T06:29:37;16.27;;;14.87;;
13967;SDS011;39536;52.198;9.920;2023-08-31T06:32:04;16.03;;;14.73;;
13967;SDS011;39536;52.198;9.920;2023-08-31T06:34:33;15.37;;;14.20;;
13967;SDS011;39536;52.198;9.920;2023-08-31T06:37:00;16.20;;;14.87;;
13967;SDS011;39536;52.198;9.920;2023-08-31T06:39:26;16.27;;;14.97;;
13967;SDS011;39536;52.198;9.920;2023-08-31T06:41:53;14.73;;;13.73;;
13967;SDS011;39536;52.198;9.920;2023-08-31T06:44:19;15.97;;;14.77;;
13967;SDS011;39536;52.198;9.920;2023-08-31T06:46:46;13.80;;;12.70;;
13967;SDS011;39536;52.198;9.920;2023-08-31T06:49:12;14.53;;;13.43;;
13967;SDS011;39536;52.198;9.920;2023-08-31T06:51:40;13.67;;;12.67;;
13967;SDS011;39536;52.198;9.920;2023-08-31T06:54:07;12.10;;;11.00;;
13967;SDS011;39536;52.198;9.920;2023-08-31T06:56:33;11.10;;;10.37;;
13967;SDS011;39536;52.198;9.920;2023-08-31T06:59:01;10.27;;;9.60;;
13967;SDS011;39536;52.198;9.920;2023-08-31T07:01:28;10.80;;;9.97;;
13967;SDS011;39536;52.198;9.920;2023-08-31T07:03:54;10.17;;;9.47;;
13967;SDS011;39536;52.198;9.920;2023-08-31T07:06:21;10.03;;;9.10;;
13967;SDS011;39536;52.198;9.920;2023-08-31T07:08:49;9.17;;;8.57;;
13967;SDS011;39536;52.198;9.920;2023-08-31T07:11:15;9.57;;;8.77;;
13967;SDS011;39536;52.198;9.920;2023-08-31T07:13:42;8.67;;;8.07;;
13967;SDS011;39536;52.198;9.920;2023-08-31T07:16:08;9.70;;;8.90;;
13967;SDS011;39536;52.198;9.920;2023-08-31T07:18:35;7.70;;;7.00;;
13967;SDS011;39536;52.198;9.920;2023-08-31T07:21:02;7.90;;;7.40;;
13967;SDS011;39536;52.198;9.920;2023-08-31T07:23:29;7.67;;;7.07;;
13967;SDS011;39536;52.198;9.920;2023-08-31T07:25:57;7.90;;;7.30;;
13967;SDS011;39536;52.198;9.920;2023-08-31T07:28:25;6.63;;;6.13;;
13967;SDS011;39536;52.198;9.920;2023-08-31T07:30:59;5.83;;;5.43;;
13967;SDS011;39536;52.198;9.920;2023-08-31T07:33:26;6.80;;;6.30;;
13967;SDS011;39536;52.198;9.920;2023-08-31T07:35:53;6.70;;;6.20;;
13967;SDS011;39536;52.198;9.920;2023-08-31T07:38:19;6.70;;;6.20;;
13967;SDS011;39536;52.198;9.920;2023-08-31T07:40:46;6.60;;;6.00;;
13967;SDS011;39536;52.198;9.920;2023-08-31T07:43:14;6.77;;;6.17;;
13967;SDS011;39536;52.198;9.920;2023-08-31T07:45:40;7.50;;;7.00;;
13967;SDS011;39536;52.198;9.920;2023-08-31T07:48:07;6.70;;;6.10;;
13967;SDS011;39536;52.198;9.920;2023-08-31T07:50:33;7.67;;;6.57;;
13967;SDS011;39536;52.198;9.920;2023-08-31T07:53:00;7.17;;;6.77;;
13967;SDS011;39536;52.198;9.920;2023-08-31T07:55:26;7.53;;;7.00;;
13967;SDS011;39536;52.198;9.920;2023-08-31T07:57:53;7.93;;;7.23;;
13967;SDS011;39536;52.198;9.920;2023-08-31T08:00:21;6.60;;;6.10;;
13967;SDS011;39536;52.198;9.920;2023-08-31T08:02:47;6.33;;;5.83;;
13967;SDS011;39536;52.198;9.920;2023-08-31T08:05:14;6.43;;;5.70;;
13967;SDS011;39536;52.198;9.920;2023-08-31T08:07:40;5.97;;;5.63;;
13967;SDS011;39536;52.198;9.920;2023-08-31T08:10:07;5.73;;;5.33;;
13967;SDS011;39536;52.198;9.920;2023-08-31T08:12:38;6.63;;;5.90;;
13967;SDS011;39536;52.198;9.920;2023-08-31T08:15:05;5.17;;;4.80;;
13967;SDS011;39536;52.198;9.920;2023-08-31T08:17:34;5.37;;;4.70;;
13967;SDS011;39536;52.198;9.920;2023-08-31T08:20:00;5.37;;;4.97;;
13967;SDS011;39536;52.198;9.920;2023-08-31T08:22:28;5.40;;;5.00;;
13967;SDS011;39536;52.198;9.920;2023-08-31T08:24:54;6.07;;;4.47;;
13967;SDS011;39536;52.198;9.920;2023-08-31T08:27:21;4.80;;;4.50;;
13967;SDS011;39536;52.198;9.920;2023-08-31T08:29:47;13.87;;;4.83;;
13967;SDS011;39536;52.198;9.920;2023-08-31T08:32:14;5.13;;;4.73;;
13967;SDS011;39536;52.198;9.920;2023-08-31T08:34:41;5.27;;;4.87;;
13967;SDS011;39536;52.198;9.920;2023-08-31T08:37:08;4.80;;;4.40;;
13967;SDS011;39536;52.198;9.920;2023-08-31T08:39:34;4.73;;;4.33;;
13967;SDS011;39536;52.198;9.920;2023-08-31T08:42:02;4.83;;;4.37;;
13967;SDS011;39536;52.198;9.920;2023-08-31T08:44:31;6.27;;;5.17;;
13967;SDS011;39536;52.198;9.920;2023-08-31T08:46:59;4.70;;;4.40;;
13967;SDS011;39536;52.198;9.920;2023-08-31T08:49:27;4.17;;;3.87;;
13967;SDS011;39536;52.198;9.920;2023-08-31T08:51:58;5.00;;;4.60;;
13967;SDS011;39536;52.198;9.920;2023-08-31T08:54:24;4.80;;;4.40;;
13967;SDS011;39536;52.198;9.920;2023-08-31T08:56:51;5.07;;;4.60;;
13967;SDS011;39536;52.198;9.920;2023-08-31T08:59:19;4.30;;;4.00;;
13967;SDS011;39536;52.198;9.920;2023-08-31T09:01:45;4.03;;;3.73;;
13967;SDS011;39536;52.198;9.920;2023-08-31T09:04:12;5.17;;;4.57;;
13967;SDS011;39536;52.198;9.920;2023-08-31T09:06:39;4.73;;;4.00;;
13967;SDS011;39536;52.198;9.920;2023-08-31T09:09:09;3.77;;;3.53;;
13967;SDS011;39536;52.198;9.920;2023-08-31T09:11:36;3.57;;;3.27;;
13967;SDS011;39536;52.198;9.920;2023-08-31T09:14:13;4.20;;;3.90;;
13967;SDS011;39536;52.198;9.920;2023-08-31T09:16:41;4.07;;;3.87;;
13967;SDS011;39536;52.198;9.920;2023-08-31T09:19:17;3.73;;;3.53;;
13967;SDS011;39536;52.198;9.920;2023-08-31T09:21:44;3.93;;;3.73;;
13967;SDS011;39536;52.198;9.920;2023-08-31T09:24:12;4.23;;;3.93;;
13967;SDS011;39536;52.198;9.920;2023-08-31T09:26:39;5.13;;;3.73;;
13967;SDS011;39536;52.198;9.920;2023-08-31T09:29:12;3.87;;;3.57;;
13967;SDS011;39536;52.198;9.920;2023-08-31T09:31:41;4.13;;;3.70;;
13967;SDS011;39536;52.198;9.920;2023-08-31T09:34:08;4.27;;;3.83;;
13967;SDS011;39536;52.198;9.920;2023-08-31T09:36:35;5.50;;;3.87;;
13967;SDS011;39536;52.198;9.920;2023-08-31T09:39:02;4.10;;;3.80;;
13967;SDS011;39536;52.198;9.920;2023-08-31T09:41:31;3.97;;;3.77;;
13967;SDS011;39536;52.198;9.920;2023-08-31T09:43:59;3.83;;;3.60;;
13967;SDS011;39536;52.198;9.920;2023-08-31T09:46:40;3.83;;;3.37;;
13967;SDS011;39536;52.198;9.920;2023-08-31T09:49:07;3.80;;;3.60;;
13967;SDS011;39536;52.198;9.920;2023-08-31T09:51:34;2.90;;;2.77;;
13967;SDS011;39536;52.198;9.920;2023-08-31T09:54:05;4.53;;;3.87;;
13967;SDS011;39536;52.198;9.920;2023-08-31T09:56:36;4.13;;;2.87;;
13967;SDS011;39536;52.198;9.920;2023-08-31T09:59:03;3.70;;;3.40;;
13967;SDS011;39536;52.198;9.920;2023-08-31T10:01:30;3.67;;;3.33;;
13967;SDS011;39536;52.198;9.920;2023-08-31T10:03:58;3.83;;;3.53;;
13967;SDS011;39536;52.198;9.920;2023-08-31T10:06:25;3.47;;;3.20;;
13967;SDS011;39536;52.198;9.920;2023-08-31T10:08:53;3.00;;;2.90;;
13967;SDS011;39536;52.198;9.920;2023-08-31T10:11:20;3.37;;;3.17;;
13967;SDS011;39536;52.198;9.920;2023-08-31T10:13:48;4.87;;;3.80;;
13967;SDS011;39536;52.198;9.920;2023-08-31T10:16:15;3.67;;;3.17;;
13967;SDS011;39536;52.198;9.920;2023-08-31T10:18:44;2.70;;;2.60;;
13967;SDS011;39536;52.198;9.920;2023-08-31T10:21:11;3.03;;;2.83;;
13967;SDS011;39536;52.198;9.920;2023-08-31T10:23:44;2.27;;;2.17;;
13967;SDS011;39536;52.198;9.920;2023-08-31T10:26:10;2.43;;;2.20;;
13967;SDS011;39536;52.198;9.920;2023-08-31T10:28:41;2.40;;;2.20;;
13967;SDS011;39536;52.198;9.920;2023-08-31T10:31:10;4.13;;;2.80;;
13967;SDS011;39536;52.198;9.920;2023-08-31T10:33:41;3.30;;;3.00;;
13967;SDS011;39536;52.198;9.920;2023-08-31T10:36:11;2.50;;;2.30;;
13967;SDS011;39536;52.198;9.920;2023-08-31T10:38:39;3.47;;;3.17;;
13967;SDS011;39536;52.198;9.920;2023-08-31T10:41:20;3.67;;;3.37;;
13967;SDS011;39536;52.198;9.920;2023-08-31T10:43:48;4.50;;;4.13;;
13967;SDS011;39536;52.198;9.920;2023-08-31T10:46:20;3.83;;;3.60;;
13967;SDS011;39536;52.198;9.920;2023-08-31T10:48:52;4.43;;;4.20;;
13967;SDS011;39536;52.198;9.920;2023-08-31T10:51:23;5.27;;;4.20;;
13967;SDS011;39536;52.198;9.920;2023-08-31T10:54:07;3.93;;;3.73;;
13967;SDS011;39536;52.198;9.920;2023-08-31T10:56:38;4.03;;;3.60;;
13967;SDS011;39536;52.198;9.920;2023-08-31T10:59:18;3.83;;;3.53;;
13967;SDS011;39536;52.198;9.920;2023-08-31T11:01:53;3.37;;;3.17;;
13967;SDS011;39536;52.198;9.920;2023-08-31T11:04:21;3.57;;;3.33;;
13967;SDS011;39536;52.198;9.920;2023-08-31T11:06:49;3.40;;;3.20;;
13967;SDS011;39536;52.198;9.920;2023-08-31T11:09:19;3.47;;;3.27;;
13967;SDS011;39536;52.198;9.920;2023-08-31T11:11:46;3.67;;;3.43;;
13967;SDS011;39536;52.198;9.920;2023-08-31T11:14:13;5.23;;;4.77;;
13967;SDS011;39536;52.198;9.920;2023-08-31T11:16:40;6.63;;;4.53;;
13967;SDS011;39536;52.198;9.920;2023-08-31T11:19:08;4.10;;;3.80;;
13967;SDS011;39536;52.198;9.920;2023-08-31T11:21:36;4.10;;;3.80;;
13967;SDS011;39536;52.198;9.920;2023-08-31T11:24:03;4.07;;;3.77;;
13967;SDS011;39536;52.198;9.920;2023-08-31T11:26:31;3.50;;;3.30;;
13967;SDS011;39536;52.198;9.920;2023-08-31T11:28:58;4.07;;;3.77;;
13967;SDS011;39536;52.198;9.920;2023-08-31T11:31:24;4.90;;;4.40;;
13967;SDS011;39536;52.198;9.920;2023-08-31T11:33:51;5.03;;;4.50;;
13967;SDS011;39536;52.198;9.920;2023-08-31T11:36:20;4.80;;;4.40;;
13967;SDS011;39536;52.198;9.920;2023-08-31T11:38:47;4.37;;;4.07;;
13967;SDS011;39536;52.198;9.920;2023-08-31T11:41:15;4.77;;;3.83;;
13967;SDS011;39536;52.198;9.920;2023-08-31T11:43:41;4.33;;;4.03;;
13967;SDS011;39536;52.198;9.920;2023-08-31T11:46:09;4.73;;;4.40;;
13967;SDS011;39536;52.198;9.920;2023-08-31T11:48:35;4.90;;;4.60;;
13967;SDS011;39536;52.198;9.920;2023-08-31T11:51:02;4.90;;;4.43;;
13967;SDS011;39536;52.198;9.920;2023-08-31T11:53:31;4.77;;;4.30;;
13967;SDS011;39536;52.198;9.920;2023-08-31T11:55:57;5.37;;;4.90;;
13967;SDS011;39536;52.198;9.920;2023-08-31T11:58:28;4.13;;;3.93;;
13967;SDS011;39536;52.198;9.920;2023-08-31T12:00:55;3.83;;;3.53;;
13967;SDS011;39536;52.198;9.920;2023-08-31T12:03:22;4.20;;;3.90;;
13967;SDS011;39536;52.198;9.920;2023-08-31T12:05:51;3.70;;;3.43;;
13967;SDS011;39536;52.198;9.920;2023-08-31T12:08:23;3.53;;;3.33;;
13967;SDS011;39536;52.198;9.920;2023-08-31T12:10:52;3.30;;;3.03;;
13967;SDS011;39536;52.198;9.920;2023-08-31T12:13:19;3.53;;;2.53;;
13967;SDS011;39536;52.198;9.920;2023-08-31T12:15:47;3.20;;;2.90;;
13967;SDS011;39536;52.198;9.920;2023-08-31T12:18:14;2.90;;;2.70;;
13967;SDS011;39536;52.198;9.920;2023-08-31T12:20:44;2.80;;;2.60;;
13967;SDS011;39536;52.198;9.920;2023-08-31T12:23:11;10.63;;;2.67;;
13967;SDS011;39536;52.198;9.920;2023-08-31T12:25:44;2.50;;;2.30;;
13967;SDS011;39536;52.198;9.920;2023-08-31T12:28:13;3.00;;;2.80;;
13967;SDS011;39536;52.198;9.920;2023-08-31T12:30:41;2.30;;;2.20;;
13967;SDS011;39536;52.198;9.920;2023-08-31T12:33:09;3.00;;;2.77;;
13967;SDS011;39536;52.198;9.920;2023-08-31T12:35:35;1.93;;;1.83;;
13967;SDS011;39536;52.198;9.920;2023-08-31T12:38:03;2.40;;;2.20;;
13967;SDS011;39536;52.198;9.920;2023-08-31T12:40:30;1.90;;;1.70;;
13967;SDS011;39536;52.198;9.920;2023-08-31T12:42:56;1.60;;;1.50;;
13967;SDS011;39536;52.198;9.920;2023-08-31T12:45:24;5.17;;;1.50;;
13967;SDS011;39536;52.198;9.920;2023-08-31T12:47:50;1.40;;;0.90;;
13967;SDS011;39536;52.198;9.920;2023-08-31T12:50:17;1.80;;;1.30;;
13967;SDS011;39536;52.198;9.920;2023-08-31T12:52:44;0.90;;;0.90;;
13967;SDS011;39536;52.198;9.920;2023-08-31T12:55:11;1.17;;;1.17;;
13967;SDS011;39536;52.198;9.920;2023-08-31T12:57:38;1.70;;;1.17;;
13967;SDS011;39536;52.198;9.920;2023-08-31T13:00:05;1.60;;;1.30;;
13967;SDS011;39536;52.198;9.920;2023-08-31T13:02:35;1.13;;;1.03;;
13967;SDS011;39536;52.198;9.920;2023-08-31T13:05:02;1.00;;;1.00;;
13967;SDS011;39536;52.198;9.920;2023-08-31T13:07:30;0.97;;;0.87;;
13967;SDS011;39536;52.198;9.920;2023-08-31T13:09:57;1.00;;;1.00;;
13967;SDS011;39536;52.198;9.920;2023-08-31T13:12:24;0.80;;;0.80;;
13967;SDS011;39536;52.198;9.920;2023-08-31T13:14:50;1.00;;;1.00;;
13967;SDS011;39536;52.198;9.920;2023-08-31T13:17:17;1.20;;;1.10;;
13967;SDS011;39536;52.198;9.920;2023-08-31T13:19:44;1.03;;;1.00;;
13967;SDS011;39536;52.198;9.920;2023-08-31T13:22:13;1.53;;;1.40;;
13967;SDS011;39536;52.198;9.920;2023-08-31T13:24:41;1.50;;;1.40;;
13967;SDS011;39536;52.198;9.920;2023-08-31T13:27:08;2.20;;;1.40;;
13967;SDS011;39536;52.198;9.920;2023-08-31T13:29:34;2.20;;;1.30;;
13967;SDS011;39536;52.198;9.920;2023-08-31T13:32:01;1.37;;;1.33;;
13967;SDS011;39536;52.198;9.920;2023-08-31T13:34:27;1.67;;;1.57;;
13967;SDS011;39536;52.198;9.920;2023-08-31T13:36:55;2.43;;;1.53;;
13967;SDS011;39536;52.198;9.920;2023-08-31T13:39:22;2.40;;;1.80;;
13967;SDS011;39536;52.198;9.920;2023-08-31T13:41:48;1.63;;;1.50;;
13967;SDS011;39536;52.198;9.920;2023-08-31T13:44:15;1.87;;;1.73;;
13967;SDS011;39536;52.198;9.920;2023-08-31T13:46:42;2.40;;;1.37;;
13967;SDS011;39536;52.198;9.920;2023-08-31T13:49:08;2.77;;;2.33;;
13967;SDS011;39536;52.198;9.920;2023-08-31T13:51:35;4.37;;;1.60;;
13967;SDS011;39536;52.198;9.920;2023-08-31T13:54:03;1.70;;;1.60;;
13967;SDS011;39536;52.198;9.920;2023-08-31T13:56:30;2.67;;;1.30;;
13967;SDS011;39536;52.198;9.920;2023-08-31T13:58:56;1.13;;;1.10;;
13967;SDS011;39536;52.198;9.920;2023-08-31T14:01:23;2.63;;;1.10;;
13967;SDS011;39536;52.198;9.920;2023-08-31T14:03:50;2.73;;;1.13;;
13967;SDS011;39536;52.198;9.920;2023-08-31T14:06:17;0.60;;;0.60;;
13967;SDS011;39536;52.198;9.920;2023-08-31T14:08:43;14.00;;;1.10;;
13967;SDS011;39536;52.198;9.920;2023-08-31T14:11:11;0.60;;;0.60;;
13967;SDS011;39536;52.198;9.920;2023-08-31T14:13:38;1.80;;;0.70;;
13967;SDS011;39536;52.198;9.920;2023-08-31T14:16:04;1.10;;;0.70;;
13967;SDS011;39536;52.198;9.920;2023-08-31T14:18:31;1.17;;;0.77;;
13967;SDS011;39536;52.198;9.920;2023-08-31T14:20:57;0.93;;;0.90;;
13967;SDS011;39536;52.198;9.920;2023-08-31T14:23:25;2.17;;;1.17;;
13967;SDS011;39536;52.198;9.920;2023-08-31T14:25:52;1.80;;;0.80;;
13967;SDS011;39536;52.198;9.920;2023-08-31T14:28:20;0.63;;;0.63;;
13967;SDS011;39536;52.198;9.920;2023-08-31T14:30:47;1.03;;;0.60;;
13967;SDS011;39536;52.198;9.920;2023-08-31T14:33:13;1.80;;;0.68;;
13967;SDS011;39536;52.198;9.920;2023-08-31T14:35:40;0.77;;;0.77;;
13967;SDS011;39536;52.198;9.920;2023-08-31T14:38:06;0.90;;;0.63;;